Time;durP1;ratioP1;P1;durP2;ratioP2;P2;SDS_P1;SDS_P2;PMS_P1;PMS_P2;Temp;Humidity;BMP_temperature;BMP_pressure;BME280_temperature;BME280_humidity;BME280_pressure;Samples;Min_cycle;Max_cycle;Signal;HPM_P1;HPM_P2
2023/07/19 00:00:47;;;;;;;4.20;3.20;;;19.00;62.00;;;19.36;56.31;97623.19;5041706;28;20460;-77
2023/07/19 00:03:15;;;;;;;3.10;2.80;;;19.00;62.50;;;19.10;56.30;97595.94;5024931;28;20566;-77
2023/07/19 00:05:42;;;;;;;3.77;3.37;;;19.00;62.70;;;19.27;56.71;97622.16;5061121;28;20442;-77
2023/07/19 00:08:11;;;;;;;4.50;3.43;;;18.90;63.20;;;19.34;56.61;97618.00;5022775;28;20827;-78
2023/07/19 00:10:38;;;;;;;3.70;3.40;;;19.00;63.30;;;19.36;56.50;97604.84;5026418;28;20451;-78
2023/07/19 00:13:06;;;;;;;4.73;3.50;;;19.10;63.50;;;19.45;56.34;97616.00;5029597;28;20485;-77
2023/07/19 00:15:33;;;;;;;4.40;3.60;;;19.20;63.60;;;19.39;56.80;97609.75;5026860;28;20786;-77
2023/07/19 00:18:01;;;;;;;3.93;3.13;;;19.20;64.00;;;19.31;57.44;97617.72;5028559;28;20453;-76
2023/07/19 00:20:29;;;;;;;4.60;3.30;;;19.10;64.30;;;19.17;57.75;97615.63;5038828;28;21088;-77
2023/07/19 00:22:56;;;;;;;4.17;3.17;;;18.90;64.80;;;18.88;58.25;97588.91;5044956;28;20537;-75
2023/07/19 00:25:25;;;;;;;3.90;3.50;;;18.80;65.50;;;19.06;58.64;97614.03;5035229;28;20458;-76
2023/07/19 00:27:52;;;;;;;3.63;3.23;;;18.90;66.30;;;18.93;58.53;97623.63;5055845;28;20805;-77
2023/07/19 00:30:19;;;;;;;4.53;3.73;;;18.80;66.00;;;18.88;58.52;97624.50;5029874;28;20854;-77
2023/07/19 00:32:47;;;;;;;3.87;3.37;;;18.70;66.10;;;18.74;59.29;97620.72;5042259;28;20524;-76
2023/07/19 00:35:15;;;;;;;6.00;3.20;;;18.60;67.10;;;18.82;59.11;97625.59;5030880;28;20504;-76
2023/07/19 00:37:43;;;;;;;3.90;3.23;;;18.50;67.30;;;18.75;59.07;97636.03;5026717;28;20462;-77
2023/07/19 00:40:11;;;;;;;3.90;3.30;;;18.50;67.10;;;18.61;59.04;97627.56;5039390;28;20591;-76
2023/07/19 00:45:24;;;;;;;5.17;3.40;;;18.30;67.30;;;18.61;59.31;97627.56;5031274;28;20450;-75
2023/07/19 00:47:52;;;;;;;3.73;3.40;;;18.30;67.80;;;18.51;59.71;97607.38;5035701;28;20876;-76
2023/07/19 00:50:21;;;;;;;3.93;3.50;;;18.40;68.30;;;18.46;59.64;97609.28;5033574;28;20493;-77
2023/07/19 00:52:50;;;;;;;3.90;3.50;;;18.30;68.30;;;18.50;59.13;97616.69;5011996;28;20454;-77
2023/07/19 00:55:18;;;;;;;4.10;3.20;;;18.20;68.40;;;18.44;59.98;97611.50;5031496;28;20458;-77
2023/07/19 00:57:46;;;;;;;3.90;3.60;;;18.20;69.10;;;18.36;60.45;97615.59;5031075;28;20450;-77
2023/07/19 01:00:14;;;;;;;4.10;3.70;;;18.10;69.80;;;18.33;60.39;97630.63;5039171;28;20594;-77
2023/07/19 01:02:42;;;;;;;4.23;3.83;;;18.10;70.30;;;18.31;60.77;97629.28;5042533;28;20441;-77
2023/07/19 01:05:10;;;;;;;3.97;3.60;;;18.00;70.90;;;18.43;60.46;97640.75;5017066;28;20470;-77
2023/07/19 01:07:39;;;;;;;4.53;4.00;;;18.10;71.30;;;18.43;60.17;97626.25;5039032;28;20953;-76
2023/07/19 01:10:07;;;;;;;5.23;4.13;;;18.20;70.90;;;18.60;60.11;97618.56;5028967;28;20453;-77
2023/07/19 01:12:35;;;;;;;4.23;3.43;;;18.40;71.00;;;18.33;60.59;97597.00;5027930;28;20435;-77
2023/07/19 01:15:05;;;;;;;3.50;3.23;;;18.40;71.20;;;18.37;60.94;97629.00;5052250;28;20467;-77
2023/07/19 01:17:32;;;;;;;3.77;3.40;;;18.20;71.50;;;18.21;61.48;97614.53;5029485;28;20562;-77
2023/07/19 01:20:00;;;;;;;5.00;3.50;;;18.20;72.30;;;18.33;61.57;97624.34;5033361;28;20926;-76
2023/07/19 01:22:32;;;;;;;4.30;3.83;;;18.20;72.60;;;18.21;61.49;97619.16;5033266;28;20437;-77
2023/07/19 01:25:00;;;;;;;4.93;4.43;;;18.10;72.70;;;18.18;61.35;97612.31;5047550;28;20459;-77
2023/07/19 01:27:28;;;;;;;3.90;3.60;;;18.10;72.60;;;18.23;61.12;97612.34;5021595;28;20480;-77
2023/07/19 01:29:55;;;;;;;7.53;3.17;;;18.10;72.50;;;18.27;61.38;97610.69;5032970;28;20923;-77
2023/07/19 01:32:22;;;;;;;6.43;4.00;;;18.10;72.70;;;18.22;62.00;97609.88;5040241;28;20917;-77
2023/07/19 01:34:49;;;;;;;3.87;3.47;;;18.10;73.20;;;18.11;62.08;97604.41;5036044;28;20497;-77
2023/07/19 01:37:17;;;;;;;3.80;3.50;;;18.00;73.80;;;18.07;62.46;97591.59;5027966;28;20454;-77
2023/07/19 01:39:45;;;;;;;5.30;3.93;;;17.90;73.90;;;18.07;62.94;97608.78;5045436;28;20450;-76
2023/07/19 01:42:13;;;;;;;4.10;3.70;;;17.90;74.80;;;18.08;62.74;97604.97;5028712;28;20454;-76
2023/07/19 01:44:40;;;;;;;5.23;3.87;;;17.90;75.10;;;18.01;63.05;97598.09;5034894;28;20454;-76
2023/07/19 01:47:07;;;;;;;3.97;3.60;;;17.80;75.50;;;17.93;63.35;97599.47;5020792;28;20443;-77
2023/07/19 01:49:34;;;;;;;4.70;4.03;;;17.70;75.70;;;17.81;63.49;97592.38;5037016;28;20443;-76
2023/07/19 01:52:01;;;;;;;5.27;3.30;;;17.60;76.10;;;17.41;63.73;97539.38;5026944;28;20451;-77
2023/07/19 01:54:28;;;;;;;4.63;3.60;;;17.60;76.70;;;17.78;63.96;97600.31;5033015;28;20516;-77
2023/07/19 01:56:58;;;;;;;4.17;3.73;;;17.50;77.00;;;17.80;64.15;97604.38;5019574;28;20499;-76
2023/07/19 01:59:25;;;;;;;4.80;4.30;;;17.70;77.40;;;17.61;64.02;97559.59;5033173;28;20585;-76
2023/07/19 02:01:54;;;;;;;4.53;3.70;;;17.80;77.40;;;17.93;63.85;97611.25;5039292;28;20465;-76
2023/07/19 02:04:21;;;;;;;3.60;3.30;;;17.70;77.20;;;17.93;63.41;97611.25;5045386;28;20442;-77
2023/07/19 02:06:48;;;;;;;4.10;3.70;;;17.70;77.00;;;17.91;63.80;97616.16;5027622;28;20509;-76
2023/07/19 02:09:16;;;;;;;4.30;3.90;;;17.70;77.20;;;17.88;64.11;97607.69;5048203;28;20454;-77
2023/07/19 02:11:43;;;;;;;4.53;4.00;;;17.80;77.70;;;17.98;63.89;97610.41;5045946;28;20462;-76
2023/07/19 02:14:11;;;;;;;4.00;3.60;;;17.80;77.80;;;17.96;64.08;97613.41;5050470;28;20475;-77
2023/07/19 02:16:39;;;;;;;5.33;4.13;;;17.80;77.60;;;17.98;64.43;97613.16;5023569;28;20443;-76
2023/07/19 02:19:08;;;;;;;5.67;4.47;;;17.90;77.90;;;18.10;64.07;97621.09;5029466;28;20446;-76
2023/07/19 02:21:35;;;;;;;5.10;3.57;;;17.90;77.90;;;18.20;63.94;97617.53;5031318;28;20455;-77
2023/07/19 02:24:02;;;;;;;4.70;4.20;;;18.10;77.90;;;18.12;64.14;97608.81;5034466;28;20442;-76
2023/07/19 02:26:29;;;;;;;4.40;4.00;;;18.20;77.90;;;17.81;63.76;97567.78;5029617;28;20531;-76
2023/07/19 02:28:57;;;;;;;6.00;4.37;;;18.20;77.40;;;18.27;63.29;97624.34;5024753;28;20524;-76
2023/07/19 02:31:26;;;;;;;4.43;4.03;;;18.20;77.40;;;18.15;63.58;97640.22;5031978;28;20545;-77
2023/07/19 02:33:53;;;;;;;4.90;4.00;;;18.10;77.40;;;18.05;63.63;97616.44;5038861;28;20469;-76
2023/07/19 02:36:20;;;;;;;4.53;4.13;;;18.10;77.40;;;18.01;63.75;97609.03;5028630;28;20450;-76
2023/07/19 02:38:47;;;;;;;4.30;3.90;;;18.00;77.30;;;17.82;64.40;97607.69;5040294;28;20541;-76
2023/07/19 02:41:14;;;;;;;4.63;4.23;;;18.00;77.50;;;17.83;64.61;97628.47;5037497;28;20462;-75
2023/07/19 02:43:42;;;;;;;5.47;4.57;;;17.90;77.90;;;17.64;65.33;97630.88;5030686;28;20454;-75
2023/07/19 02:46:09;;;;;;;4.97;3.97;;;17.80;78.20;;;17.68;65.28;97631.97;5049781;28;20485;-76
2023/07/19 02:48:37;;;;;;;5.43;4.93;;;17.70;78.50;;;17.68;65.50;97631.19;5033557;28;20545;-77
2023/07/19 02:51:05;;;;;;;5.80;4.07;;;17.70;78.70;;;17.53;66.38;97627.34;5026943;28;20442;-77
2023/07/19 02:53:32;;;;;;;5.77;4.27;;;17.60;79.30;;;17.44;66.72;97628.09;5031459;28;20460;-77
2023/07/19 02:56:00;;;;;;;5.20;4.70;;;17.50;79.80;;;17.06;66.63;97568.22;5028484;28;21031;-77
2023/07/19 02:58:27;;;;;;;7.10;4.80;;;17.40;80.00;;;17.42;67.01;97631.13;5024710;28;20512;-76
2023/07/19 03:00:54;;;;;;;9.50;4.90;;;17.30;80.60;;;17.32;66.78;97631.09;5045017;28;20485;-76
2023/07/19 03:03:22;;;;;;;5.87;5.10;;;17.20;80.70;;;16.77;67.32;97558.56;5009583;28;20462;-76
2023/07/19 03:05:51;;;;;;;4.93;4.23;;;17.10;81.20;;;17.36;67.00;97633.00;5040716;28;20550;-76
2023/07/19 03:08:18;;;;;;;5.27;4.77;;;17.20;81.30;;;17.42;66.96;97633.84;5027913;28;20438;-77
2023/07/19 03:10:45;;;;;;;4.70;4.30;;;17.20;81.00;;;17.45;67.22;97636.03;5027221;28;20508;-76
2023/07/19 03:13:12;;;;;;;4.50;3.97;;;17.30;81.70;;;17.45;67.11;97641.50;5038445;28;20856;-76
2023/07/19 03:15:40;;;;;;;6.07;4.50;;;17.30;81.40;;;17.56;66.26;97631.41;5030112;28;20476;-77
2023/07/19 03:18:08;;;;;;;6.10;4.93;;;17.40;81.00;;;17.55;66.67;97641.53;5063966;28;20473;-76
2023/07/19 03:20:35;;;;;;;4.70;4.30;;;17.40;81.20;;;17.57;66.27;97627.59;5031087;28;20968;-76
2023/07/19 03:23:04;;;;;;;5.00;4.50;;;17.50;81.30;;;17.42;67.48;97631.13;5020383;28;21019;-77
2023/07/19 03:25:31;;;;;;;4.70;4.30;;;17.40;81.30;;;17.45;67.76;97637.97;5042500;28;20816;-77
2023/07/19 03:27:58;;;;;;;6.40;5.80;;;17.40;81.70;;;17.44;67.72;97637.13;5031320;28;20496;-77
2023/07/19 03:30:25;;;;;;;4.50;4.10;;;17.40;81.60;;;17.59;66.92;97636.34;5054360;28;20930;-76
2023/07/19 03:32:53;;;;;;;7.40;5.43;;;17.50;81.50;;;17.54;67.18;97633.59;5033072;28;20449;-76
2023/07/19 03:35:20;;;;;;;5.30;4.80;;;17.50;81.40;;;17.51;67.31;97634.13;5034274;28;20475;-77
2023/07/19 03:37:47;;;;;;;8.07;5.37;;;17.50;81.50;;;17.60;66.59;97631.69;5035596;28;20547;-77
2023/07/19 03:40:16;;;;;;;5.10;4.60;;;17.50;81.40;;;17.80;65.86;97637.16;5026147;28;21032;-77
2023/07/19 03:42:43;;;;;;;5.77;4.83;;;17.60;81.30;;;17.91;65.53;97637.19;5029335;28;20458;-77
2023/07/19 03:45:12;;;;;;;5.37;4.80;;;17.60;80.50;;;17.87;65.73;97636.09;5028128;28;20519;-79
2023/07/19 03:47:39;;;;;;;5.33;4.83;;;17.70;80.70;;;17.91;65.89;97648.13;5023792;28;20490;-77
2023/07/19 03:50:08;;;;;;;9.60;5.47;;;17.70;80.90;;;17.98;64.74;97643.22;5025324;28;20471;-76
2023/07/19 03:52:38;;;;;;;6.23;5.00;;;17.90;80.40;;;17.96;65.09;97635.28;5029038;28;20932;-76
2023/07/19 03:55:07;;;;;;;6.80;5.10;;;17.90;80.10;;;18.00;65.23;97635.56;5026742;28;20469;-77
2023/07/19 03:57:35;;;;;;;5.97;5.20;;;17.90;80.30;;;18.04;67.03;97642.16;5028731;28;20454;-76
2023/07/19 04:00:05;;;;;;;6.17;4.80;;;17.80;81.50;;;17.83;69.46;97635.81;5027303;28;21025;-77
2023/07/19 04:02:32;;;;;;;4.90;4.50;;;17.80;84.10;;;17.84;69.25;97649.22;5023512;28;20443;-77
2023/07/19 04:04:59;;;;;;;6.10;4.60;;;17.70;84.20;;;17.77;74.25;97656.03;5035756;28;20512;-76
2023/07/19 04:07:27;;;;;;;11.60;4.77;;;17.70;88.90;;;17.74;71.30;97660.13;5040649;28;20537;-75
2023/07/19 04:09:54;;;;;;;8.70;5.33;;;17.70;86.80;;;17.72;73.86;97659.59;5031898;28;20443;-76
2023/07/19 04:12:22;;;;;;;6.47;5.20;;;17.60;89.30;;;17.50;73.47;97666.06;5039711;28;20447;-77
2023/07/19 04:14:50;;;;;;;7.37;5.17;;;17.50;87.90;;;17.47;72.29;97649.44;5024372;28;20466;-76
2023/07/19 04:17:17;;;;;;;6.10;5.50;;;17.50;87.40;;;17.54;73.38;97650.81;5038370;28;20461;-75
2023/07/19 04:19:44;;;;;;;6.00;5.40;;;17.50;88.30;;;17.78;71.73;97649.47;5050615;28;20504;-77
2023/07/19 04:22:12;;;;;;;6.30;5.40;;;17.60;88.10;;;17.37;72.77;97634.66;5030005;28;20457;-77
2023/07/19 04:24:39;;;;;;;7.50;5.57;;;17.50;87.70;;;17.58;71.82;97658.47;5035764;28;20556;-76
2023/07/19 04:27:06;;;;;;;8.67;5.23;;;17.50;87.10;;;17.52;74.28;97666.66;5027017;28;20684;-78
2023/07/19 04:29:33;;;;;;;10.03;4.90;;;17.40;89.90;;;17.42;74.79;97672.09;5032649;28;20813;-76
2023/07/19 04:32:02;;;;;;;6.70;5.60;;;17.40;90.10;;;17.45;74.19;97662.53;5033986;28;20510;-77
2023/07/19 04:34:29;;;;;;;6.50;5.80;;;17.40;89.90;;;17.54;71.66;97634.44;5059167;28;20466;-77
2023/07/19 04:36:56;;;;;;;5.97;5.37;;;17.50;87.90;;;17.58;71.93;97642.88;5026172;28;20475;-76
2023/07/19 04:39:24;;;;;;;7.77;5.20;;;17.70;87.70;;;17.62;70.50;97648.63;5017855;28;20469;-77
2023/07/19 04:41:51;;;;;;;7.73;6.20;;;17.60;86.10;;;17.73;70.80;97657.66;5018965;28;20491;-75
2023/07/19 04:44:18;;;;;;;5.50;5.00;;;17.60;86.10;;;17.90;69.13;97658.25;5029866;28;20454;-75
2023/07/19 04:46:45;;;;;;;7.50;5.10;;;17.80;85.00;;;18.08;69.71;97654.16;5031067;28;20442;-76
2023/07/19 04:49:14;;;;;;;7.40;5.80;;;17.90;85.80;;;18.15;69.60;97642.16;5025286;28;20454;-77
2023/07/19 04:51:43;;;;;;;6.57;5.00;;;18.00;85.80;;;18.21;69.39;97650.06;5024972;28;20478;-76
2023/07/19 04:54:11;;;;;;;6.73;5.23;;;18.10;85.40;;;18.28;68.71;97641.59;5040534;28;20834;-77
2023/07/19 04:56:38;;;;;;;6.10;5.30;;;18.10;85.30;;;18.22;68.76;97632.56;5024679;28;20531;-77
2023/07/19 04:59:05;;;;;;;6.27;5.60;;;18.10;84.90;;;18.19;68.51;97640.50;5025939;28;20466;-76
2023/07/19 05:01:32;;;;;;;6.30;5.47;;;18.20;84.60;;;18.09;69.86;97646.78;5021464;28;20460;-76
2023/07/19 05:04:00;;;;;;;8.40;6.00;;;18.10;84.90;;;18.48;68.51;97639.91;5024982;28;20486;-76
2023/07/19 05:06:29;;;;;;;9.57;6.43;;;18.30;84.90;;;18.67;67.53;97626.47;5033455;28;20482;-77
2023/07/19 05:08:56;;;;;;;8.40;5.47;;;18.40;84.60;;;19.46;64.58;97636.81;5029296;28;20446;-77
2023/07/19 05:11:25;;;;;;;7.00;6.03;;;19.10;83.10;;;20.16;61.37;97636.91;5015878;28;21175;-76
2023/07/19 05:13:52;;;;;;;11.60;6.10;;;19.90;80.40;;;19.70;60.84;97597.78;5029167;28;20445;-76
2023/07/19 05:16:19;;;;;;;7.50;6.00;;;20.00;78.70;;;20.46;58.89;97610.28;5029826;28;20496;-76
2023/07/19 05:18:46;;;;;;;8.47;5.70;;;20.50;77.70;;;21.19;56.68;97616.59;5060859;28;20456;-77
2023/07/19 05:21:14;;;;;;;8.70;5.60;;;21.10;76.00;;;21.98;54.90;97644.63;5034047;28;21104;-78
2023/07/19 05:23:43;;;;;;;6.00;5.40;;;21.90;75.10;;;21.18;56.52;97631.44;5060949;28;21054;-77
2023/07/19 05:26:10;;;;;;;10.77;9.13;;;21.80;73.80;;;20.56;58.55;97625.81;5033161;28;20441;-76
2023/07/19 05:28:38;;;;;;;6.97;4.97;;;21.10;74.70;;;21.15;56.92;97625.72;5049267;28;20450;-75
2023/07/19 05:31:07;;;;;;;7.50;5.50;;;21.10;74.80;;;21.00;56.51;97634.97;5026532;28;21018;-77
2023/07/19 05:33:35;;;;;;;6.60;5.90;;;21.40;73.70;;;20.92;57.22;97630.94;5062135;28;20982;-76
2023/07/19 05:36:03;;;;;;;7.27;5.60;;;21.40;73.50;;;21.71;53.40;97554.63;5059763;28;20992;-78
2023/07/19 05:38:32;;;;;;;11.73;5.13;;;22.00;72.60;;;22.00;53.01;97603.88;5040675;28;20467;-76
2023/07/19 05:41:06;;;;;;;11.90;7.50;;;22.20;71.50;;;22.59;51.57;97619.94;5037886;28;21127;-76
2023/07/19 05:43:34;;;;;;;6.83;6.23;;;22.60;70.70;;;22.95;50.99;97621.19;5032023;28;20460;-76
2023/07/19 05:46:05;;;;;;;6.50;5.80;;;22.80;70.10;;;22.50;51.26;97597.81;5029966;28;20448;-76
2023/07/19 05:48:33;;;;;;;7.90;6.27;;;23.00;69.00;;;22.77;50.65;97609.13;5030422;28;20629;-75
2023/07/19 05:51:01;;;;;;;6.47;5.73;;;23.20;68.00;;;24.21;47.60;97628.31;5046923;28;20462;-76
2023/07/19 05:53:28;;;;;;;8.10;5.30;;;23.80;67.30;;;24.62;46.52;97628.03;5033309;28;20459;-76
2023/07/19 05:55:56;;;;;;;7.73;5.33;;;24.60;65.60;;;25.49;45.10;97627.88;5040563;28;20503;-75
2023/07/19 05:58:31;;;;;;;8.07;5.67;;;25.30;64.20;;;25.20;45.05;97615.44;5030562;28;20462;-76
2023/07/19 06:00:58;;;;;;;6.20;5.17;;;25.60;62.60;;;25.08;45.04;97630.69;5040076;28;20451;-77
2023/07/19 06:03:26;;;;;;;6.07;5.57;;;25.40;62.10;;;25.26;44.64;97627.97;5017994;28;20465;-77
2023/07/19 06:05:53;;;;;;;6.43;5.80;;;25.40;61.80;;;25.53;44.00;97615.03;5030957;28;20481;-79
2023/07/19 06:08:20;;;;;;;5.50;5.00;;;25.70;61.10;;;25.37;44.04;97629.28;5028538;28;20454;-76
2023/07/19 06:10:48;;;;;;;6.60;5.37;;;25.60;60.50;;;24.82;44.99;97612.09;5028946;28;20462;-77
2023/07/19 06:13:15;;;;;;;8.17;6.00;;;25.50;60.30;;;24.53;46.15;97623.63;5038413;28;20546;-76
2023/07/19 06:15:44;;;;;;;6.43;5.53;;;25.30;60.10;;;25.47;44.19;97628.16;5030970;28;20480;-76
2023/07/19 06:18:11;;;;;;;8.77;6.50;;;25.60;59.80;;;25.42;43.64;97623.63;5017132;28;20469;-76
2023/07/19 06:20:38;;;;;;;6.33;5.60;;;25.80;59.10;;;25.18;44.25;97632.34;5041203;28;20444;-77
2023/07/19 06:23:06;;;;;;;5.80;5.07;;;25.80;58.80;;;25.42;43.73;97629.16;5028523;28;20458;-76
2023/07/19 06:25:33;;;;;;;7.77;5.63;;;25.80;58.80;;;24.90;43.92;97614.06;5010131;28;20932;-76
2023/07/19 06:28:00;;;;;;;7.57;5.27;;;25.80;58.10;;;23.80;46.75;97632.88;5040749;28;20456;-76
2023/07/19 06:30:28;;;;;;;5.23;4.73;;;24.70;58.80;;;23.36;48.24;97625.03;5040032;28;20460;-76
2023/07/19 06:32:57;;;;;;;6.17;5.67;;;23.60;60.50;;;22.97;49.16;97634.63;5054239;28;20536;-76
2023/07/19 06:35:24;;;;;;;6.57;5.30;;;23.10;61.60;;;22.81;49.92;97629.41;5029723;28;20599;-76
2023/07/19 06:37:51;;;;;;;5.77;5.20;;;22.70;62.30;;;22.83;50.31;97640.97;5034860;28;20622;-76
2023/07/19 06:40:19;;;;;;;12.20;5.77;;;22.80;63.10;;;22.84;50.50;97630.75;5032400;28;20455;-75
2023/07/19 06:42:46;;;;;;;6.40;5.70;;;22.80;63.30;;;22.99;49.42;97624.13;5027761;28;20464;-77
2023/07/19 06:45:13;;;;;;;6.97;5.70;;;22.80;62.80;;;23.37;49.29;97614.84;5042779;28;20457;-77
2023/07/19 06:47:41;;;;;;;6.50;5.90;;;23.00;63.60;;;23.35;47.74;97617.88;5045879;28;20457;-77
2023/07/19 06:50:10;;;;;;;11.60;5.77;;;23.20;61.90;;;23.35;48.11;97631.66;5028638;28;20464;-77
2023/07/19 06:52:37;;;;;;;7.20;5.40;;;23.20;62.10;;;23.39;47.91;97618.88;5026351;28;20805;-77
2023/07/19 06:55:06;;;;;;;6.50;5.80;;;23.30;62.00;;;23.02;49.10;97629.03;5040362;28;20496;-76
2023/07/19 06:57:34;;;;;;;7.87;6.30;;;23.10;62.30;;;23.48;47.92;97628.06;5028193;28;20539;-76
2023/07/19 07:00:03;;;;;;;6.23;4.93;;;23.20;62.10;;;23.91;46.10;97628.75;5034819;28;20496;-77
2023/07/19 07:02:30;;;;;;;6.20;5.43;;;23.50;61.20;;;23.89;45.66;97625.50;5023693;28;20548;-77
2023/07/19 07:04:57;;;;;;;7.70;5.30;;;23.70;60.20;;;24.47;44.14;97631.22;5036409;28;20855;-76
2023/07/19 07:07:26;;;;;;;6.40;5.00;;;24.00;59.70;;;24.72;43.94;97623.38;5032706;28;20500;-76
2023/07/19 07:09:54;;;;;;;6.20;4.17;;;24.30;59.40;;;24.52;43.83;97631.09;5028312;28;20482;-76
2023/07/19 07:12:21;;;;;;;6.87;4.67;;;24.40;58.60;;;24.58;43.42;97634.53;5031207;28;20872;-77
2023/07/19 07:14:48;;;;;;;4.90;4.40;;;24.30;58.40;;;24.47;43.17;97628.47;5035219;28;20530;-73
2023/07/19 07:17:16;;;;;;;4.90;4.30;;;24.30;58.20;;;24.67;43.20;97637.34;5006934;28;20480;-73
2023/07/19 07:19:43;;;;;;;9.23;4.53;;;24.30;58.10;;;24.42;43.80;97636.88;5030799;28;20946;-72
2023/07/19 07:22:10;;;;;;;5.67;4.50;;;24.40;58.40;;;24.63;43.54;97634.41;5019488;28;20489;-73
2023/07/19 07:24:39;;;;;;;4.80;3.80;;;24.40;58.50;;;24.14;44.83;97631.50;5025900;28;20436;-73
2023/07/19 07:27:07;;;;;;;5.23;4.53;;;24.10;58.60;;;24.39;44.06;97643.03;5019963;28;20442;-73
2023/07/19 07:29:35;;;;;;;4.60;4.20;;;24.10;59.00;;;24.09;44.24;97632.47;5029168;28;20456;-73
2023/07/19 07:32:02;;;;;;;5.33;4.03;;;24.00;58.40;;;24.31;44.40;97636.34;5039692;28;20456;-73
2023/07/19 07:34:29;;;;;;;4.43;4.03;;;24.10;58.70;;;24.25;44.63;97629.31;5034078;28;20465;-72
2023/07/19 07:36:56;;;;;;;5.40;4.30;;;24.00;58.50;;;24.60;44.16;97629.50;5028590;28;20731;-72
2023/07/19 07:39:23;;;;;;;5.30;4.10;;;24.30;58.80;;;24.64;44.78;97637.97;5026341;28;20458;-74
2023/07/19 07:41:52;;;;;;;7.03;3.93;;;24.50;59.40;;;24.92;44.61;97633.09;5027996;28;20466;-73
2023/07/19 07:44:19;;;;;;;4.17;3.73;;;24.60;59.60;;;25.22;44.25;97625.03;5029031;28;20457;-73
2023/07/19 07:46:47;;;;;;;4.10;3.70;;;24.90;59.40;;;24.94;44.81;97624.47;5055305;28;21023;-74
2023/07/19 07:49:15;;;;;;;6.17;3.90;;;24.80;59.50;;;24.79;45.14;97620.19;5026260;28;20470;-73
2023/07/19 07:51:42;;;;;;;5.30;3.37;;;24.70;59.60;;;24.89;44.96;97629.00;5032844;28;20531;-74
2023/07/19 07:54:09;;;;;;;4.23;3.83;;;24.80;59.70;;;24.71;45.02;97632.81;5038720;28;20445;-72
2023/07/19 07:56:36;;;;;;;4.63;4.23;;;24.80;59.40;;;24.75;45.64;97617.22;5056441;28;20470;-73
2023/07/19 07:59:05;;;;;;;6.00;4.00;;;24.70;59.70;;;24.74;45.73;97626.63;5029693;28;20453;-73
2023/07/19 08:01:32;;;;;;;4.00;3.70;;;24.60;59.90;;;24.96;45.56;97622.22;5025420;28;20450;-73
2023/07/19 08:04:00;;;;;;;4.20;3.80;;;24.70;60.10;;;25.20;44.81;97623.72;5055881;28;20455;-73
2023/07/19 08:06:27;;;;;;;6.50;4.50;;;24.90;59.60;;;25.41;44.47;97627.53;5050618;28;20912;-73
2023/07/19 08:08:55;;;;;;;5.57;3.90;;;25.10;59.60;;;25.66;43.60;97622.34;5019736;28;20445;-73
2023/07/19 08:11:22;;;;;;;5.07;4.33;;;25.30;59.70;;;25.49;44.49;97622.34;5032303;28;20481;-73
2023/07/19 08:13:49;;;;;;;4.80;4.30;;;25.30;59.50;;;25.71;43.96;97618.63;5034641;28;20972;-74
2023/07/19 08:16:18;;;;;;;4.40;4.00;;;25.50;59.40;;;25.98;43.02;97598.06;5034524;28;20836;-74
2023/07/19 08:18:45;;;;;;;4.80;4.40;;;25.70;59.10;;;25.95;43.26;97607.03;5029494;28;20991;-73
2023/07/19 08:21:13;;;;;;;3.43;3.13;;;25.80;58.90;;;26.08;43.25;97609.97;5024226;28;20452;-73
2023/07/19 08:23:40;;;;;;;5.47;3.97;;;25.80;59.10;;;26.02;42.82;97621.22;5023084;28;20552;-73
2023/07/19 08:26:08;;;;;;;5.07;4.20;;;25.80;58.50;;;26.09;43.03;97617.13;5042341;28;20935;-74
2023/07/19 08:28:35;;;;;;;4.83;4.17;;;25.80;58.60;;;26.20;42.46;97612.91;5028100;28;20455;-75
2023/07/19 08:31:02;;;;;;;7.43;3.73;;;25.90;58.30;;;26.40;42.32;97610.56;5036692;28;20464;-74
2023/07/19 08:33:31;;;;;;;5.93;3.70;;;26.10;58.30;;;26.30;42.83;97609.75;5031826;28;20484;-73
2023/07/19 08:35:59;;;;;;;4.43;3.53;;;26.10;58.30;;;26.21;42.28;97609.00;5039458;28;20472;-73
2023/07/19 08:38:26;;;;;;;4.13;3.73;;;26.00;57.80;;;26.33;42.38;97615.81;5021623;28;20537;-73
2023/07/19 08:41:01;;;;;;;4.10;3.70;;;26.00;58.00;;;26.63;41.36;97607.56;5045732;28;20442;-74
2023/07/19 08:43:29;;;;;;;3.90;3.50;;;26.30;57.80;;;26.54;41.20;97619.47;5024860;28;20536;-73
2023/07/19 08:45:56;;;;;;;4.70;3.93;;;26.40;57.00;;;26.39;41.69;97608.94;5060165;28;20438;-73
2023/07/19 08:48:24;;;;;;;3.97;3.60;;;26.20;57.30;;;26.54;41.64;97611.19;5034986;28;20466;-73
2023/07/19 08:50:56;;;;;;;4.37;3.47;;;26.20;57.50;;;26.93;41.11;97618.72;5043492;28;21015;-73
2023/07/19 08:53:26;;;;;;;4.10;3.40;;;26.50;57.20;;;27.14;39.89;97602.94;5028954;28;20468;-73
2023/07/19 08:55:54;;;;;;;3.93;3.63;;;26.80;56.40;;;26.56;39.58;97600.56;5030636;28;20514;-73
2023/07/19 08:58:22;;;;;;;3.97;3.27;;;26.60;55.20;;;26.98;39.19;97601.88;5029251;28;20561;-73
2023/07/19 09:00:50;;;;;;;3.57;3.27;;;26.70;55.30;;;26.64;39.83;97603.66;5032247;28;20449;-73
2023/07/19 09:03:18;;;;;;;4.07;3.67;;;26.40;55.30;;;26.65;40.41;97594.19;5028782;28;20520;-74
2023/07/19 09:05:46;;;;;;;3.43;3.10;;;26.50;55.40;;;26.89;39.18;97599.16;5043336;28;20460;-73
2023/07/19 09:08:15;;;;;;;3.03;2.73;;;26.60;55.00;;;27.12;38.56;97598.88;5023415;28;20572;-74
2023/07/19 09:10:46;;;;;;;4.43;3.87;;;26.80;54.70;;;27.15;38.51;97590.69;5034894;28;20456;-74
2023/07/19 09:13:19;;;;;;;4.10;3.23;;;26.90;54.30;;;27.01;38.41;97584.59;5028946;28;20454;-73
2023/07/19 09:15:48;;;;;;;3.13;2.83;;;26.90;54.10;;;26.96;38.37;97588.34;5031530;28;20581;-72
2023/07/19 09:18:17;;;;;;;3.33;3.03;;;26.80;54.00;;;26.86;38.53;97588.75;5033768;28;20791;-73
2023/07/19 09:20:44;;;;;;;3.27;2.97;;;26.70;53.80;;;27.19;37.65;97574.22;5030429;28;20455;-73
2023/07/19 09:23:12;;;;;;;3.17;2.87;;;26.80;53.80;;;27.43;37.74;97573.53;5032063;28;20462;-73
2023/07/19 09:25:53;;;;;;;3.20;3.00;;;27.00;53.70;;;27.82;37.21;97573.41;5028765;28;20440;-73
2023/07/19 09:28:22;;;;;;;3.00;2.70;;;27.50;53.70;;;28.15;36.89;97569.00;5031004;28;20845;-74
2023/07/19 09:30:56;;;;;;;3.00;2.70;;;27.80;53.60;;;28.38;36.41;97572.22;5035441;28;20459;-74
2023/07/19 09:33:26;;;;;;;3.30;3.00;;;28.00;53.20;;;27.99;37.35;97555.78;5022632;28;20454;-74
2023/07/19 09:35:58;;;;;;;5.03;3.20;;;27.70;53.40;;;28.08;36.92;97557.66;5022312;28;20561;-73
2023/07/19 09:38:26;;;;;;;5.00;3.10;;;27.90;53.30;;;28.41;36.27;97570.69;5029088;28;20449;-73
2023/07/19 09:40:56;;;;;;;3.70;3.33;;;28.10;53.10;;;28.58;36.47;97566.09;5030064;28;20462;-74
2023/07/19 09:43:23;;;;;;;3.93;3.50;;;28.30;53.00;;;28.31;36.62;97568.38;5022514;28;20446;-73
2023/07/19 09:45:52;;;;;;;5.23;3.17;;;28.00;52.90;;;28.33;37.05;97560.50;5029721;28;20478;-74
2023/07/19 09:48:21;;;;;;;5.43;3.13;;;27.90;53.20;;;28.07;36.56;97567.13;5027061;28;20501;-74
2023/07/19 09:50:50;;;;;;;3.07;2.40;;;27.90;52.40;;;28.13;34.80;97563.78;5024432;28;20462;-74
2023/07/19 09:53:17;;;;;;;2.77;2.57;;;27.90;51.20;;;27.78;35.21;97560.56;5040754;28;20457;-73
2023/07/19 09:55:48;;;;;;;3.40;2.43;;;27.50;50.90;;;27.92;35.10;97554.72;5030656;28;21200;-73
2023/07/19 09:58:18;;;;;;;2.83;2.53;;;27.60;51.00;;;28.32;34.12;97561.66;5041232;28;20446;-73
2023/07/19 10:00:47;;;;;;;3.50;2.40;;;27.90;50.60;;;28.48;34.53;97543.19;5035468;28;20448;-73
2023/07/19 10:03:20;;;;;;;8.10;2.77;;;28.10;50.80;;;28.25;35.32;97556.69;5026161;28;20549;-74
2023/07/19 10:05:56;;;;;;;3.30;2.83;;;28.00;51.20;;;28.00;35.26;97554.63;5061405;28;21133;-74
2023/07/19 10:08:23;;;;;;;3.00;2.80;;;27.80;50.80;;;28.15;35.13;97535.69;5028000;28;20684;-73
2023/07/19 10:10:58;;;;;;;6.47;2.80;;;27.90;51.20;;;28.49;33.77;97539.25;5034909;28;20934;-73
2023/07/19 10:13:56;;;;;;;2.83;2.50;;;28.20;50.20;;;27.89;35.35;97538.72;5042561;28;20503;-73
2023/07/19 10:16:24;;;;;;;3.40;2.87;;;27.80;50.70;;;28.02;35.17;97542.38;5028155;28;20477;-72
2023/07/19 10:19:10;;;;;;;4.97;2.60;;;27.80;50.80;;;27.94;35.63;97542.09;5037464;28;20457;-73
2023/07/19 10:21:37;;;;;;;2.70;2.50;;;27.70;50.90;;;27.54;35.45;97539.91;5025378;28;20449;-74
2023/07/19 10:24:08;;;;;;;3.33;3.00;;;27.50;50.50;;;27.37;36.16;97530.53;5020706;28;21019;-73
2023/07/19 10:26:37;;;;;;;4.10;2.97;;;27.10;50.80;;;27.71;35.67;97525.03;5051616;28;20503;-74